Time;durP1;ratioP1;P1;durP2;ratioP2;P2;SDS_P1;SDS_P2;PMS_P1;PMS_P2;Temp;Humidity;BMP_temperature;BMP_pressure;BME280_temperature;BME280_humidity;BME280_pressure;Samples;Min_cycle;Max_cycle;Signal;HPM_P1;HPM_P2
2021/09/18 00:00:13;;;;;;;;;;;;;;;11.89;78.92;96884.47;30002;983;1875;-60
2021/09/18 00:00:43;;;;;;;;;;;;;;;11.89;79.04;96889.91;30002;983;1880;-60
2021/09/18 00:01:14;;;;;;;;;;;;;;;11.88;79.11;96887.50;30002;983;1876;-59
2021/09/18 00:01:45;;;;;;;;;;;;;;;11.87;79.09;96886.69;30002;972;1876;-59
2021/09/18 00:02:16;;;;;;;;;;;;;;;11.86;79.13;96887.81;30002;983;1871;-60
2021/09/18 00:02:47;;;;;;;;;;;;;;;11.86;79.08;96890.50;30002;983;1858;-59
2021/09/18 00:03:17;;;;;;;;;;;;;;;11.87;79.58;96886.69;30002;982;1871;-61
2021/09/18 00:03:48;;;;;;;;;;;;;;;11.88;79.82;96890.22;30002;982;1880;-59
2021/09/18 00:04:19;;;;;;;;;;;;;;;11.89;80.31;96895.34;30002;982;1876;-59
2021/09/18 00:04:50;;;;;;;;;;;;;;;11.87;81.17;96892.13;30002;982;1880;-59
2021/09/18 00:05:21;;;;;;;;;;;;;;;11.85;80.89;96894.34;30002;982;1876;-59
2021/09/18 00:05:52;;;;;;;;;;;;;;;11.82;81.00;96894.94;30002;983;1880;-59
2021/09/18 00:06:23;;;;;;;;;;;;;;;11.82;80.71;96888.69;30002;983;1875;-60
2021/09/18 00:06:54;;;;;;;;;;;;;;;11.82;80.75;96894.94;30002;983;1858;-60
2021/09/18 00:07:25;;;;;;;;;;;;;;;11.83;80.76;96893.03;30002;983;1871;-59
2021/09/18 00:07:56;;;;;;;;;;;;;;;11.81;80.77;96889.81;30002;983;1858;-59
2021/09/18 00:08:27;;;;;;;;;;;;;;;11.80;80.70;96899.87;30002;983;1871;-59
2021/09/18 00:08:58;;;;;;;;;;;;;;;11.80;80.85;96899.87;30002;983;1880;-59
2021/09/18 00:09:29;;;;;;;;;;;;;;;11.81;80.68;96893.31;30002;983;1876;-60
2021/09/18 00:09:59;;;;;;;;;;;;;;;11.80;80.50;96891.72;30002;983;1880;-60
2021/09/18 00:10:30;;;;;;;;;;;;;;;11.79;80.48;96895.53;30002;983;1876;-59
2021/09/18 00:11:01;;;;;;;;;;;;;;;11.75;80.59;96894.53;30002;982;1880;-59
2021/09/18 00:11:32;;;;;;;;;;;;;;;11.72;80.69;96890.50;30002;982;1876;-58
2021/09/18 00:12:03;;;;;;;;;;;;;;;11.67;81.36;96893.28;30002;982;1859;-63
2021/09/18 00:12:34;;;;;;;;;;;;;;;11.62;81.62;96895.28;30001;982;1872;-59
2021/09/18 00:13:05;;;;;;;;;;;;;;;11.61;81.43;96896.41;30001;982;1880;-59
2021/09/18 00:13:36;;;;;;;;;;;;;;;11.60;81.54;96898.31;30001;983;1875;-59
2021/09/18 00:14:07;;;;;;;;;;;;;;;11.62;81.40;96895.28;30001;983;1880;-59
2021/09/18 00:14:39;;;;;;;;;;;;;;;11.63;81.65;96899.63;30001;960;1898;-59
2021/09/18 00:15:10;;;;;;;;;;;;;;;11.63;81.51;96895.00;30001;983;1880;-59
2021/09/18 00:15:41;;;;;;;;;;;;;;;11.64;81.13;96901.25;30001;987;1876;-59
2021/09/18 00:16:12;;;;;;;;;;;;;;;11.65;81.38;96894.69;30001;983;1880;-60
2021/09/18 00:16:43;;;;;;;;;;;;;;;11.65;81.04;96903.66;30001;983;1876;-61
2021/09/18 00:17:13;;;;;;;;;;;;;;;11.65;81.19;96894.69;30001;983;1858;-61
2021/09/18 00:17:44;;;;;;;;;;;;;;;11.65;81.16;96895.50;30001;983;1849;-59
2021/09/18 00:18:15;;;;;;;;;;;;;;;11.64;81.30;96893.09;30001;983;1858;-60
2021/09/18 00:18:46;;;;;;;;;;;;;;;11.66;81.21;96896.31;30001;982;1850;-60
2021/09/18 00:19:17;;;;;;;;;;;;;;;11.66;81.08;96893.59;30001;982;1880;-59
2021/09/18 00:19:48;;;;;;;;;;;;;;;11.68;81.00;96891.37;30001;982;1876;-59
2021/09/18 00:20:19;;;;;;;;;;;;;;;11.65;81.17;96897.41;30001;982;1880;-59
2021/09/18 00:20:49;;;;;;;;;;;;;;;11.64;81.09;96896.59;30001;982;1876;-59
2021/09/18 00:21:23;;;;;;;;;;;;;;;11.63;81.13;96891.47;30001;983;1879;-60
2021/09/18 00:21:54;;;;;;;;;;;;;;;11.62;81.60;96884.44;30001;983;1875;-59
2021/09/18 00:22:25;;;;;;;;;;;;;;;11.60;81.60;96892.88;30001;983;1880;-59
2021/09/18 00:22:56;;;;;;;;;;;;;;;11.59;81.62;96885.81;30001;983;1875;-60
2021/09/18 00:23:29;;;;;;;;;;;;;;;11.60;81.44;96892.06;30001;983;1858;-59
2021/09/18 00:24:00;;;;;;;;;;;;;;;11.60;81.67;96892.88;30001;983;1871;-59
2021/09/18 00:24:31;;;;;;;;;;;;;;;11.60;81.55;96892.88;30001;983;1880;-62
2021/09/18 00:25:02;;;;;;;;;;;;;;;11.62;81.66;96895.28;30001;983;1854;-60
2021/09/18 00:25:33;;;;;;;;;;;;;;;11.62;81.69;96889.84;30001;983;1876;-58
2021/09/18 00:26:04;;;;;;;;;;;;;;;11.62;81.54;96889.84;30001;982;1876;-60
2021/09/18 00:26:35;;;;;;;;;;;;;;;11.61;81.44;96893.69;30001;982;1880;-60
2021/09/18 00:27:06;;;;;;;;;;;;;;;11.61;81.38;96894.50;30001;982;1854;-58
2021/09/18 00:27:37;;;;;;;;;;;;;;;11.62;81.41;96895.28;30001;982;1876;-58
2021/09/18 00:28:08;;;;;;;;;;;;;;;11.62;81.67;96892.56;30001;982;1876;-59
2021/09/18 00:28:39;;;;;;;;;;;;;;;11.60;81.70;96898.31;30001;983;1880;-61
2021/09/18 00:29:09;;;;;;;;;;;;;;;11.60;81.80;96894.78;30001;983;1875;-59
2021/09/18 00:29:40;;;;;;;;;;;;;;;11.59;81.58;96893.19;30001;983;1880;-60
2021/09/18 00:30:11;;;;;;;;;;;;;;;11.59;81.79;96893.97;30001;983;1875;-63
2021/09/18 00:30:42;;;;;;;;;;;;;;;11.60;81.62;96897.50;30001;983;1880;-59
2021/09/18 00:31:14;;;;;;;;;;;;;;;11.61;81.88;96893.69;30001;983;1876;-59
2021/09/18 00:31:45;;;;;;;;;;;;;;;11.59;81.62;96890.47;30001;983;1880;-59
2021/09/18 00:32:17;;;;;;;;;;;;;;;11.57;81.88;96898.09;30001;983;1854;-64
2021/09/18 00:32:48;;;;;;;;;;;;;;;11.55;81.78;96892.16;30001;983;1876;-59
2021/09/18 00:33:19;;;;;;;;;;;;;;;11.54;82.08;96899.50;30001;983;1876;-59
2021/09/18 00:33:49;;;;;;;;;;;;;;;11.55;82.21;96889.44;30001;982;1858;-59
2021/09/18 00:34:20;;;;;;;;;;;;;;;11.54;81.96;96896.78;30001;982;1872;-60
2021/09/18 00:34:51;;;;;;;;;;;;;;;11.54;82.00;96898.69;30001;982;1880;-65
2021/09/18 00:35:22;;;;;;;;;;;;;;;11.52;82.15;96888.12;30001;982;1876;-58
2021/09/18 00:35:53;;;;;;;;;;;;;;;11.51;82.06;96893.84;30001;982;1880;-63
2021/09/18 00:36:24;;;;;;;;;;;;;;;11.49;82.37;96896.88;30001;983;1875;-58
2021/09/18 00:36:56;;;;;;;;;;;;;;;11.48;82.06;96889.00;30001;983;1880;-59
2021/09/18 00:37:27;;;;;;;;;;;;;;;11.47;82.55;96892.84;30001;983;1875;-62
2021/09/18 00:37:58;;;;;;;;;;;;;;;11.47;82.20;96895.56;30001;983;1880;-60
2021/09/18 00:38:28;;;;;;;;;;;;;;;11.46;82.26;96891.22;30001;983;1854;-60
2021/09/18 00:38:59;;;;;;;;;;;;;;;11.45;82.19;96895.84;30001;983;1875;-59
2021/09/18 00:39:30;;;;;;;;;;;;;;;11.43;82.39;96888.00;30001;983;1854;-62
2021/09/18 00:40:01;;;;;;;;;;;;;;;11.42;82.27;96901.91;30001;983;1876;-59
2021/09/18 00:40:32;;;;;;;;;;;;;;;11.43;82.62;96889.13;30001;982;1876;-59
2021/09/18 00:41:02;;;;;;;;;;;;;;;11.41;82.45;96894.84;30001;982;1880;-59
2021/09/18 00:41:33;;;;;;;;;;;;;;;11.40;82.70;96898.69;30001;982;1854;-60
2021/09/18 00:42:04;;;;;;;;;;;;;;;11.39;82.75;96897.88;30001;982;1876;-61
2021/09/18 00:42:35;;;;;;;;;;;;;;;11.39;82.67;96897.06;30001;985;1876;-60
2021/09/18 00:43:06;;;;;;;;;;;;;;;11.37;82.79;96902.78;30001;982;1880;-60
2021/09/18 00:43:36;;;;;;;;;;;;;;;11.36;82.76;96893.03;30001;983;1875;-60
2021/09/18 00:44:07;;;;;;;;;;;;;;;11.34;83.00;96895.22;30001;983;1880;-61
2021/09/18 00:44:38;;;;;;;;;;;;;;;11.33;83.48;96893.63;30001;983;1875;-60
2021/09/18 00:45:09;;;;;;;;;;;;;;;11.32;83.42;96902.88;30001;983;1880;-63
2021/09/18 00:45:40;;;;;;;;;;;;;;;11.31;83.52;96898.53;30001;983;1875;-61
2021/09/18 00:46:11;;;;;;;;;;;;;;;11.31;83.52;96895.81;30001;983;1880;-63
2021/09/18 00:46:41;;;;;;;;;;;;;;;11.30;83.73;96896.94;30001;983;1854;-62
2021/09/18 00:47:12;;;;;;;;;;;;;;;11.31;83.77;96906.69;30001;983;1876;-62
2021/09/18 00:47:43;;;;;;;;;;;;;;;11.29;83.67;96895.31;30001;982;1876;-61
2021/09/18 00:48:17;;;;;;;;;;;;;;;11.28;83.80;96896.41;30001;982;1880;-63
2021/09/18 00:48:48;;;;;;;;;;;;;;;11.29;83.85;96898.03;30001;982;1876;-62
2021/09/18 00:49:19;;;;;;;;;;;;;;;11.29;84.08;96900.75;30001;982;1881;-63
2021/09/18 00:49:50;;;;;;;;;;;;;;;11.28;84.04;96890.97;30001;982;1854;-62
2021/09/18 00:50:22;;;;;;;;;;;;;;;11.28;84.02;96896.41;30001;982;1876;-61
2021/09/18 00:50:53;;;;;;;;;;;;;;;11.26;83.97;96893.19;30001;982;1876;-63
2021/09/18 00:51:24;;;;;;;;;;;;;;;11.26;83.97;96892.38;30001;983;1880;-60
2021/09/18 00:51:55;;;;;;;;;;;;;;;11.25;84.04;96890.78;30001;962;1815;-61
2021/09/18 00:52:26;;;;;;;;;;;;;;;11.24;83.90;96892.69;30001;966;1892;-59
2021/09/18 00:52:57;;;;;;;;;;;;;;;11.24;84.08;96900.81;30001;983;1875;-59
2021/09/18 00:53:28;;;;;;;;;;;;;;;11.22;84.00;96892.16;30001;983;1880;-59
2021/09/18 00:53:58;;;;;;;;;;;;;;;11.23;83.83;96888.34;30001;983;1778;-59
2021/09/18 00:54:31;;;;;;;;;;;;;;;11.24;84.02;96892.69;30001;983;1858;-59
2021/09/18 00:55:03;;;;;;;;;;;;;;;11.25;83.88;96891.56;30001;983;1871;-60
2021/09/18 00:55:34;;;;;;;;;;;;;;;11.24;83.99;96889.16;30001;982;1880;-61
2021/09/18 00:56:05;;;;;;;;;;;;;;;11.23;84.33;96892.97;30001;982;1876;-61
2021/09/18 00:56:36;;;;;;;;;;;;;;;11.21;84.22;96895.97;30001;982;1880;-59
2021/09/18 00:57:10;;;;;;;;;;;;;;;11.22;83.85;96892.16;30001;982;1876;-62
2021/09/18 00:57:41;;;;;;;;;;;;;;;11.22;83.84;96894.88;30001;982;1859;-62
2021/09/18 00:58:12;;;;;;;;;;;;;;;11.24;83.93;96891.87;30001;982;1872;-60
2021/09/18 00:58:43;;;;;;;;;;;;;;;11.25;84.20;96897.00;30001;983;1879;-62
2021/09/18 00:59:16;;;;;;;;;;;;;;;11.24;84.13;96898.13;30001;983;1875;-60
2021/09/18 00:59:47;;;;;;;;;;;;;;;11.22;84.21;96894.88;30001;983;1880;-60
2021/09/18 01:00:18;;;;;;;;;;;;;;;11.22;84.13;96897.59;30001;983;1875;-63
2021/09/18 01:00:48;;;;;;;;;;;;;;;11.22;84.18;96896.78;30001;983;1880;-60
2021/09/18 01:01:19;;;;;;;;;;;;;;;11.21;84.14;96892.47;30001;962;1897;-60
2021/09/18 01:01:51;;;;;;;;;;;;;;;11.21;84.38;96898.69;30001;983;1858;-61
2021/09/18 01:02:21;;;;;;;;;;;;;;;11.21;84.26;96895.19;30001;983;1871;-60
2021/09/18 01:02:53;;;;;;;;;;;;;;;11.19;84.58;96900.91;30001;982;1880;-62
2021/09/18 01:03:24;;;;;;;;;;;;;;;11.20;84.79;96888.94;30001;982;1876;-59
2021/09/18 01:03:55;;;;;;;;;;;;;;;11.17;84.63;96889.53;30001;982;1880;-60
2021/09/18 01:04:26;;;;;;;;;;;;;;;11.18;84.61;96895.78;30001;982;1876;-60
2021/09/18 01:04:57;;;;;;;;;;;;;;;11.17;84.78;96888.72;30001;982;1880;-62
2021/09/18 01:05:32;;;;;;;;;;;;;;;11.16;84.75;96893.34;30001;982;1876;-60
2021/09/18 01:06:03;;;;;;;;;;;;;;;11.17;84.65;96891.44;30001;982;1880;-61
2021/09/18 01:06:34;;;;;;;;;;;;;;;11.16;84.71;96898.78;30001;983;1875;-62
2021/09/18 01:07:06;;;;;;;;;;;;;;;11.16;84.65;96897.97;30001;983;1858;-60
2021/09/18 01:07:37;;;;;;;;;;;;;;;11.16;84.92;96889.81;30001;983;1871;-60
2021/09/18 01:08:10;;;;;;;;;;;;;;;11.15;84.75;96886.31;30001;983;1880;-60
2021/09/18 01:08:42;;;;;;;;;;;;;;;11.14;84.86;96890.13;30001;983;1875;-60
2021/09/18 01:09:14;;;;;;;;;;;;;;;11.15;84.85;96889.00;30001;983;1880;-63
2021/09/18 01:09:45;;;;;;;;;;;;;;;11.15;84.81;96891.72;30001;983;1876;-60
2021/09/18 01:10:15;;;;;;;;;;;;;;;11.15;85.00;96891.72;30001;983;1880;-62
2021/09/18 01:10:50;;;;;;;;;;;;;;;11.16;84.95;96887.91;30001;982;1876;-60
2021/09/18 01:11:21;;;;;;;;;;;;;;;11.16;84.59;96887.91;30001;982;1880;-60
2021/09/18 01:11:51;;;;;;;;;;;;;;;11.18;84.83;96890.34;30001;982;1777;-60
2021/09/18 01:12:24;;;;;;;;;;;;;;;11.18;84.74;96893.84;30001;982;1859;-60
2021/09/18 01:13:02;;;;;;;;;;;;;;;11.17;84.69;96894.97;30001;983;1871;-60
2021/09/18 01:13:34;;;;;;;;;;;;;;;11.19;84.94;96890.03;30001;983;1879;-60
2021/09/18 01:14:05;;;;;;;;;;;;;;;11.20;84.64;96894.38;30001;983;1875;-60
2021/09/18 01:14:43;;;;;;;;;;;;;;;11.21;84.99;96895.19;30001;983;1880;-60
2021/09/18 01:15:15;;;;;;;;;;;;;;;11.24;84.53;96889.97;30001;983;1875;-62
2021/09/18 01:15:47;;;;;;;;;;;;;;;11.22;84.61;96892.16;30001;983;1880;-62
2021/09/18 01:16:20;;;;;;;;;;;;;;;11.22;84.85;96892.16;30001;983;1854;-61
2021/09/18 01:16:52;;;;;;;;;;;;;;;11.21;84.82;96887.84;30001;983;1876;-60
2021/09/18 01:17:23;;;;;;;;;;;;;;;11.20;84.49;96894.38;30001;983;1876;-62
2021/09/18 01:17:56;;;;;;;;;;;;;;;11.19;84.79;96881.09;30001;983;1880;-61
2021/09/18 01:18:26;;;;;;;;;;;;;;;11.19;84.39;96887.31;30001;972;1886;-60
2021/09/18 01:18:57;;;;;;;;;;;;;;;11.19;84.55;96887.31;30001;982;1880;-60
2021/09/18 01:19:28;;;;;;;;;;;;;;;11.17;84.71;96892.25;30001;982;1876;-62
2021/09/18 01:19:59;;;;;;;;;;;;;;;11.18;84.49;96891.16;30001;982;1858;-61
2021/09/18 01:20:31;;;;;;;;;;;;;;;11.17;84.53;96889.53;30001;983;1871;-62
2021/09/18 01:21:02;;;;;;;;;;;;;;;11.16;84.79;96882.47;30001;983;1880;-61
2021/09/18 01:21:33;;;;;;;;;;;;;;;11.16;84.85;96887.91;30001;983;1875;-61
2021/09/18 01:22:06;;;;;;;;;;;;;;;11.15;84.97;96885.50;30001;983;1880;-61
2021/09/18 01:22:37;;;;;;;;;;;;;;;11.14;84.85;96884.69;30001;983;1875;-61
2021/09/18 01:23:09;;;;;;;;;;;;;;;11.14;84.93;96884.69;30001;983;1858;-61
2021/09/18 01:23:41;;;;;;;;;;;;;;;11.14;85.22;96887.41;30001;983;1871;-60
2021/09/18 01:24:12;;;;;;;;;;;;;;;11.14;85.17;96886.59;30001;983;1880;-61
2021/09/18 01:24:43;;;;;;;;;;;;;;;11.17;85.07;96883.28;30001;983;1876;-61
2021/09/18 01:25:14;;;;;;;;;;;;;;;11.18;85.12;96880.28;30001;983;1880;-60
2021/09/18 01:25:45;;;;;;;;;;;;;;;11.21;84.70;96887.84;30001;982;1876;-60
2021/09/18 01:26:16;;;;;;;;;;;;;;;11.24;84.83;96887.25;30001;982;1880;-61
2021/09/18 01:26:48;;;;;;;;;;;;;;;11.25;84.78;96880.72;30001;982;1854;-62
2021/09/18 01:27:19;;;;;;;;;;;;;;;11.26;84.66;96887.75;30001;982;1876;-61
2021/09/18 01:27:50;;;;;;;;;;;;;;;11.26;84.84;96882.31;30001;982;1876;-59
2021/09/18 01:28:23;;;;;;;;;;;;;;;11.26;84.57;96886.94;30001;983;1880;-64
2021/09/18 01:28:54;;;;;;;;;;;;;;;11.27;84.44;96883.94;30001;983;1854;-62
2021/09/18 01:29:25;;;;;;;;;;;;;;;11.27;84.29;96889.38;30001;983;1875;-63
2021/09/18 01:29:56;;;;;;;;;;;;;;;11.27;84.26;96883.94;30001;983;1875;-61
2021/09/18 01:30:28;;;;;;;;;;;;;;;11.27;84.57;96877.69;30001;983;1880;-62
2021/09/18 01:30:59;;;;;;;;;;;;;;;11.26;84.14;96882.31;30001;983;1875;-62
2021/09/18 01:31:30;;;;;;;;;;;;;;;11.26;84.22;96887.75;30001;983;1784;-62
2021/09/18 01:32:01;;;;;;;;;;;;;;;11.25;84.38;96878.00;30001;983;1854;-60
2021/09/18 01:32:31;;;;;;;;;;;;;;;11.25;84.48;96885.34;30001;983;1876;-59
2021/09/18 01:33:03;;;;;;;;;;;;;;;11.24;84.11;96879.09;30001;982;1876;-63
2021/09/18 01:33:35;;;;;;;;;;;;;;;11.24;84.42;96875.56;30001;982;1858;-60
2021/09/18 01:34:06;;;;;;;;;;;;;;;11.25;84.36;96879.91;30001;986;1862;-60
2021/09/18 01:34:37;;;;;;;;;;;;;;;11.25;84.67;96878.00;30001;982;1880;-61
2021/09/18 01:35:08;;;;;;;;;;;;;;;11.26;84.65;96882.31;30001;982;1876;-61
2021/09/18 01:35:39;;;;;;;;;;;;;;;11.26;84.68;96876.91;30001;983;1880;-60
2021/09/18 01:36:10;;;;;;;;;;;;;;;11.27;84.61;96878.50;30001;983;1853;-62
2021/09/18 01:36:41;;;;;;;;;;;;;;;11.28;84.63;96874.69;30001;983;1875;-60
2021/09/18 01:37:12;;;;;;;;;;;;;;;11.28;84.38;96880.12;30001;983;1875;-62
2021/09/18 01:37:48;;;;;;;;;;;;;;;11.31;84.34;96876.00;30001;983;1858;-60
2021/09/18 01:38:19;;;;;;;;;;;;;;;11.31;84.50;96874.09;30001;983;1871;-62
2021/09/18 01:38:50;;;;;;;;;;;;;;;11.30;84.75;96880.62;30001;983;1880;-62
2021/09/18 01:39:22;;;;;;;;;;;;;;;11.32;84.59;96875.72;30001;983;1773;-59
2021/09/18 01:39:52;;;;;;;;;;;;;;;11.32;84.22;96881.16;30001;983;1880;-60
2021/09/18 01:40:25;;;;;;;;;;;;;;;11.31;84.32;96879.53;30001;983;1876;-60
2021/09/18 01:40:56;;;;;;;;;;;;;;;11.32;84.43;96880.34;30001;982;1880;-61
2021/09/18 01:41:28;;;;;;;;;;;;;;;11.32;84.62;96878.44;30001;982;1854;-60
2021/09/18 01:41:59;;;;;;;;;;;;;;;11.32;84.58;96873.00;30001;982;1876;-59
2021/09/18 01:42:29;;;;;;;;;;;;;;;11.34;84.81;96887.09;30001;970;1896;-60
2021/09/18 01:43:01;;;;;;;;;;;;;;;11.34;84.71;96876.22;30001;982;1881;-60
2021/09/18 01:43:31;;;;;;;;;;;;;;;11.35;84.51;96880.56;30001;983;1875;-63
2021/09/18 01:44:03;;;;;;;;;;;;;;;11.35;84.47;96880.56;30001;983;1880;-60
2021/09/18 01:44:34;;;;;;;;;;;;;;;11.36;84.21;96879.44;30001;983;1875;-60
2021/09/18 01:45:05;;;;;;;;;;;;;;;11.37;84.12;96877.53;30001;983;1880;-64
2021/09/18 01:45:36;;;;;;;;;;;;;;;11.38;83.97;96879.16;30001;983;1876;-63
2021/09/18 01:46:07;;;;;;;;;;;;;;;11.38;83.90;96877.25;30001;983;1880;-62
2021/09/18 01:46:38;;;;;;;;;;;;;;;11.39;83.87;96876.13;30001;983;1854;-60
2021/09/18 01:47:09;;;;;;;;;;;;;;;11.39;83.56;96873.41;30001;983;1876;-60
2021/09/18 01:47:44;;;;;;;;;;;;;;;11.40;83.57;96877.75;30001;982;1876;-60
2021/09/18 01:48:15;;;;;;;;;;;;;;;11.40;83.69;96883.19;30001;982;1880;-62
2021/09/18 01:48:46;;;;;;;;;;;;;;;11.40;83.27;96877.75;30001;982;1876;-63
2021/09/18 01:49:18;;;;;;;;;;;;;;;11.40;83.60;96876.94;30001;982;1880;-60
2021/09/18 01:49:48;;;;;;;;;;;;;;;11.40;83.39;96876.94;30001;982;1876;-60
2021/09/18 01:50:25;;;;;;;;;;;;;;;11.39;83.58;96878.84;30001;982;1880;-61
2021/09/18 01:50:59;;;;;;;;;;;;;;;11.39;83.59;96875.31;30001;983;1853;-63
2021/09/18 01:51:32;;;;;;;;;;;;;;;11.39;83.60;96876.13;30001;983;1875;-60
2021/09/18 01:52:29;;;;;;;;;;;;;;;11.39;83.50;96876.13;30001;983;1875;-64
2021/09/18 01:53:04;;;;;;;;;;;;;;;11.40;83.61;96877.75;30001;983;1880;-61
2021/09/18 01:53:35;;;;;;;;;;;;;;;11.43;83.09;96875.53;30001;983;1876;-61
2021/09/18 01:54:06;;;;;;;;;;;;;;;11.43;83.08;96877.13;30001;983;1880;-63
2021/09/18 01:54:37;;;;;;;;;;;;;;;11.45;82.96;96873.31;30001;983;1854;-60
2021/09/18 01:55:08;;;;;;;;;;;;;;;11.46;82.75;96881.16;30001;982;1854;-63
2021/09/18 01:55:40;;;;;;;;;;;;;;;11.47;83.09;96876.53;30001;982;1876;-60
2021/09/18 01:56:11;;;;;;;;;;;;;;;11.47;82.90;96877.34;30001;982;1880;-60
2021/09/18 01:56:42;;;;;;;;;;;;;;;11.48;82.76;96878.16;30001;982;1876;-61
2021/09/18 01:57:12;;;;;;;;;;;;;;;11.48;82.85;96875.44;30001;982;1880;-63
2021/09/18 01:57:45;;;;;;;;;;;;;;;11.48;82.49;96872.72;30001;982;1876;-60
2021/09/18 01:58:16;;;;;;;;;;;;;;;11.47;82.81;96869.19;30001;983;1880;-63
2021/09/18 01:58:47;;;;;;;;;;;;;;;11.47;82.50;96881.97;30001;983;1875;-60
2021/09/18 01:59:18;;;;;;;;;;;;;;;11.47;82.77;96876.53;30001;983;1880;-62
2021/09/18 01:59:48;;;;;;;;;;;;;;;11.47;82.61;96873.81;30001;983;1875;-62
2021/09/18 02:00:20;;;;;;;;;;;;;;;11.46;82.62;96878.44;30001;983;1858;-60
2021/09/18 02:00:53;;;;;;;;;;;;;;;11.47;82.70;96879.25;30001;983;1849;-62
2021/09/18 02:01:24;;;;;;;;;;;;;;;11.46;82.91;96880.34;30001;983;1880;-60
2021/09/18 02:01:55;;;;;;;;;;;;;;;11.47;82.97;96876.53;30001;983;1876;-60
2021/09/18 02:02:29;;;;;;;;;;;;;;;11.46;82.75;96874.91;30001;982;1880;-64
2021/09/18 02:03:01;;;;;;;;;;;;;;;11.47;83.16;96876.53;30001;982;1876;-60
2021/09/18 02:03:35;;;;;;;;;;;;;;;11.45;83.08;96876.81;30001;982;1880;-60
2021/09/18 02:04:08;;;;;;;;;;;;;;;11.43;83.14;96868.97;30001;982;1876;-61
2021/09/18 02:04:39;;;;;;;;;;;;;;;11.43;83.12;96883.69;30001;982;1880;-60
2021/09/18 02:05:10;;;;;;;;;;;;;;;11.43;83.20;96882.56;30001;982;1854;-62
2021/09/18 02:05:41;;;;;;;;;;;;;;;11.43;82.86;96870.91;30001;982;1876;-60
2021/09/18 02:06:16;;;;;;;;;;;;;;;11.43;83.07;96879.84;30001;983;1875;-63
2021/09/18 02:06:47;;;;;;;;;;;;;;;11.42;83.00;96866.59;30001;983;1880;-63
2021/09/18 02:07:17;;;;;;;;;;;;;;;11.43;82.90;96872.81;30001;983;1875;-62
2021/09/18 02:07:49;;;;;;;;;;;;;;;11.41;83.28;96873.94;30001;983;1880;-63
2021/09/18 02:08:23;;;;;;;;;;;;;;;11.40;83.13;96864.16;30001;983;1876;-63
2021/09/18 02:08:55;;;;;;;;;;;;;;;11.39;82.91;96867.19;30001;986;1858;-63
2021/09/18 02:09:26;;;;;;;;;;;;;;;11.38;83.21;96869.09;30001;983;1871;-59
2021/09/18 02:09:57;;;;;;;;;;;;;;;11.38;83.41;96868.28;30001;982;1880;-60
2021/09/18 02:10:28;;;;;;;;;;;;;;;11.37;83.15;96867.47;30001;982;1876;-59
2021/09/18 02:10:59;;;;;;;;;;;;;;;11.37;83.41;96867.47;30001;982;1880;-62
2021/09/18 02:11:31;;;;;;;;;;;;;;;11.36;83.18;96868.59;30001;982;1854;-62
2021/09/18 02:12:02;;;;;;;;;;;;;;;11.36;83.01;96860.44;30001;982;1876;-63
2021/09/18 02:12:33;;;;;;;;;;;;;;;11.35;83.44;96864.25;30001;982;1876;-63
2021/09/18 02:13:06;;;;;;;;;;;;;;;11.35;83.13;96869.69;30001;969;1901;-62
2021/09/18 02:13:37;;;;;;;;;;;;;;;11.34;83.45;96865.34;30001;983;1853;-61
2021/09/18 02:14:08;;;;;;;;;;;;;;;11.35;83.14;96863.44;30001;983;1875;-60
2021/09/18 02:14:40;;;;;;;;;;;;;;;11.35;83.21;96863.44;30001;983;1875;-62
2021/09/18 02:15:12;;;;;;;;;;;;;;;11.34;83.38;96862.63;30001;983;1880;-61
2021/09/18 02:15:44;;;;;;;;;;;;;;;11.34;83.29;96867.25;30001;983;1876;-61
2021/09/18 02:16:15;;;;;;;;;;;;;;;11.31;83.85;96867.84;30001;983;1880;-60
2021/09/18 02:16:46;;;;;;;;;;;;;;;11.31;84.13;96865.12;30001;983;1875;-60
2021/09/18 02:17:16;;;;;;;;;;;;;;;11.28;84.04;96863.81;30001;983;1858;-60
2021/09/18 02:17:49;;;;;;;;;;;;;;;11.26;84.04;96863.31;30001;982;1871;-61
2021/09/18 02:18:20;;;;;;;;;;;;;;;11.25;84.30;96867.13;30001;982;1880;-60
2021/09/18 02:18:52;;;;;;;;;;;;;;;11.24;84.25;96862.81;30001;982;1876;-61
2021/09/18 02:19:23;;;;;;;;;;;;;;;11.23;84.43;96872.06;30001;982;1880;-60
2021/09/18 02:19:54;;;;;;;;;;;;;;;11.22;84.67;96873.16;30001;982;1876;-60
2021/09/18 02:20:26;;;;;;;;;;;;;;;11.21;84.63;96873.44;30001;983;1880;-60
2021/09/18 02:20:57;;;;;;;;;;;;;;;11.21;84.32;96873.44;30001;983;1876;-60
2021/09/18 02:21:28;;;;;;;;;;;;;;;11.19;84.50;96868.31;30001;983;1880;-61
2021/09/18 02:21:59;;;;;;;;;;;;;;;11.18;84.75;96872.12;30001;983;1853;-62
2021/09/18 02:22:30;;;;;;;;;;;;;;;11.17;84.62;96878.66;30001;983;1875;-61
2021/09/18 02:23:01;;;;;;;;;;;;;;;11.16;84.36;96876.25;30001;983;1876;-60
2021/09/18 02:23:32;;;;;;;;;;;;;;;11.15;84.49;96875.44;30001;983;1880;-60
2021/09/18 02:24:03;;;;;;;;;;;;;;;11.13;84.86;96874.94;30001;983;1876;-61
2021/09/18 02:24:34;;;;;;;;;;;;;;;11.11;85.31;96870.91;30001;983;1880;-61
2021/09/18 02:25:06;;;;;;;;;;;;;;;11.09;85.30;96865.75;30001;982;1854;-61
2021/09/18 02:25:37;;;;;;;;;;;;;;;11.07;85.35;96868.00;30001;982;1876;-61
2021/09/18 02:26:10;;;;;;;;;;;;;;;11.07;85.42;96873.41;30001;982;1854;-63
2021/09/18 02:26:40;;;;;;;;;;;;;;;11.05;85.40;96867.47;30001;982;1876;-60
2021/09/18 02:27:11;;;;;;;;;;;;;;;11.04;85.02;96863.16;30001;982;1876;-62
2021/09/18 02:27:42;;;;;;;;;;;;;;;11.03;85.08;96859.63;30001;983;1880;-60
2021/09/18 02:28:13;;;;;;;;;;;;;;;11.04;85.26;96869.37;30001;983;1875;-60
2021/09/18 02:28:44;;;;;;;;;;;;;;;11.04;85.14;96863.16;30001;983;1858;-61
2021/09/18 02:29:15;;;;;;;;;;;;;;;11.02;85.28;96866.16;30001;983;1871;-60
2021/09/18 02:29:46;;;;;;;;;;;;;;;10.98;85.75;96864.34;30001;983;1880;-61
2021/09/18 02:30:18;;;;;;;;;;;;;;;10.95;85.75;96865.72;30001;983;1876;-61
2021/09/18 02:30:49;;;;;;;;;;;;;;;10.93;85.78;96867.13;30001;983;1858;-60
2021/09/18 02:31:24;;;;;;;;;;;;;;;10.89;86.21;96860.66;30001;983;1849;-62
2021/09/18 02:31:55;;;;;;;;;;;;;;;10.88;86.23;96859.06;30001;987;1880;-62
2021/09/18 02:32:26;;;;;;;;;;;;;;;10.88;85.71;96864.47;30001;983;1876;-60
2021/09/18 02:32:58;;;;;;;;;;;;;;;10.87;86.03;96866.38;30001;982;1880;-62
2021/09/18 02:33:29;;;;;;;;;;;;;;;10.86;85.85;96862.06;30001;982;1876;-61
2021/09/18 02:34:00;;;;;;;;;;;;;;;10.86;86.17;96861.25;30001;982;1880;-60
2021/09/18 02:34:32;;;;;;;;;;;;;;;10.85;85.97;96860.44;30001;986;1867;-61
2021/09/18 02:35:04;;;;;;;;;;;;;;;10.83;85.93;96867.28;30001;982;1880;-60
2021/09/18 02:35:34;;;;;;;;;;;;;;;10.83;85.80;96861.84;30001;983;1875;-60
2021/09/18 02:36:05;;;;;;;;;;;;;;;10.84;85.94;96864.25;30001;983;1880;-60
2021/09/18 02:36:36;;;;;;;;;;;;;;;10.86;85.99;96863.97;30001;964;1872;-60
2021/09/18 02:37:07;;;;;;;;;;;;;;;10.88;86.00;96861.75;30001;983;1875;-60
2021/09/18 02:37:41;;;;;;;;;;;;;;;10.89;85.63;96864.19;30001;983;1875;-61
2021/09/18 02:38:15;;;;;;;;;;;;;;;10.90;85.54;96865.81;30001;983;1858;-61
2021/09/18 02:38:46;;;;;;;;;;;;;;;10.92;85.43;96870.94;30001;983;1871;-62
2021/09/18 02:39:17;;;;;;;;;;;;;;;10.94;85.59;96869.53;30001;982;1880;-61
2021/09/18 02:39:47;;;;;;;;;;;;;;;10.95;85.27;96870.34;30001;982;1876;-63
2021/09/18 02:40:19;;;;;;;;;;;;;;;10.97;85.30;96868.16;30001;982;1880;-63
2021/09/18 02:40:53;;;;;;;;;;;;;;;10.98;85.40;96870.56;30001;982;1876;-63
2021/09/18 02:41:24;;;;;;;;;;;;;;;10.98;85.31;96870.56;30001;982;1880;-61
2021/09/18 02:41:55;;;;;;;;;;;;;;;10.99;85.20;96866.75;30001;982;1854;-60
2021/09/18 02:42:25;;;;;;;;;;;;;;;11.00;85.35;96867.56;30001;982;1876;-62
2021/09/18 02:42:58;;;;;;;;;;;;;;;11.00;85.39;96864.84;30001;983;1875;-60
2021/09/18 02:43:29;;;;;;;;;;;;;;;10.99;85.41;96872.19;30001;983;1880;-63
2021/09/18 02:43:59;;;;;;;;;;;;;;;11.01;85.39;96874.59;30001;960;1801;-61
2021/09/18 02:44:30;;;;;;;;;;;;;;;10.99;85.46;96866.75;30001;983;1880;-61
2021/09/18 02:45:01;;;;;;;;;;;;;;;11.00;85.38;96868.37;30001;983;1875;-60
2021/09/18 02:45:32;;;;;;;;;;;;;;;11.00;85.67;96873.00;30001;983;1880;-62
2021/09/18 02:46:03;;;;;;;;;;;;;;;11.00;85.29;96867.56;30001;983;1876;-62
2021/09/18 02:46:34;;;;;;;;;;;;;;;11.01;85.50;96863.75;30001;983;1880;-62
2021/09/18 02:47:05;;;;;;;;;;;;;;;11.01;85.24;96869.16;30001;982;1854;-62
2021/09/18 02:47:36;;;;;;;;;;;;;;;11.01;85.25;96869.16;30001;982;1739;-61
2021/09/18 02:48:07;;;;;;;;;;;;;;;11.00;85.17;96865.66;30001;982;1876;-61